METAR Data
IDs: Format: Raw Decoded Include TAF

Data at: 2116 UTC 19 May 2019

PAWD 192053Z AUTO 16007KT 10SM -RA FEW043 OVC050 09/08 A2973 RMK AO2 RAB42 SLP066 P0000 60002 T00940078 53002 TSNO
PAWD 191953Z AUTO 33004KT 10SM OVC050 10/06 A2972 RMK AO2 RAE14 SLP063 P0001 T01000056 TSNO
PAWD 191853Z AUTO 00000KT 9SM -RA BKN047 OVC055 09/07 A2972 RMK AO2 SLP065 P0001 T00940072 TSNO
PAWD 191753Z AUTO 00000KT 9SM -RA BKN046 OVC060 08/06 A2972 RMK SLP064 P0002 60007 T00830061 10100 20078 51009 TSNO VIA AUTODIAL
PAWD 191653Z AUTO 18004KT 9SM -RA BKN045 OVC055 08/07 A2972 RMK SLP064 P0002 T00830067 TSNO VIA AUTODIAL
PAWD 191553Z AUTO 07004KT 10SM -RA BKN046 OVC055 08/06 A2971 RMK RAB14 SLP059 P0001 T00830061 TSNO VIA AUTODIAL
PAWD 191453Z AUTO 34010KT 10SM FEW065 OVC080 09/04 A2969 RMK RAE34 SLP055 P0001 60002 T00890044 58013 TSNO VIA AUTODIAL
PAWD 191353Z AUTO VRB05KT 10SM -RA OVC048 09/05 A2972 RMK RAB07 SLP066 P0001 T00890050 TSNO VIA AUTODIAL
PAWD 191253Z AUTO 36005KT 10SM BKN055 OVC070 09/04 A2972 RMK SLP065 T00940039 TSNO VIA AUTODIAL
PAWD 191153Z AUTO 36006KT 10SM BKN065 BKN085 OVC110 09/03 A2973 RMK SLP069 60000 T00940033 10106 20094 58007 TSNO VIA AUTODIAL
PAWD 191053Z AUTO 01006KT 10SM BKN060 OVC120 09/03 A2975 RMK SLP074 T00940033 TSNO VIA AUTODIAL
PAWD 190953Z AUTO 01006KT 10SM OVC065 10/03 A2975 RMK AO2 SLP075 T01000033 TSNO
PAWD 190853Z AUTO 03005KT 10SM BKN060 OVC075 10/03 A2976 RMK AO2 RAB11E36 SLP076 P0000 60000 T01000033 401170017 58009 TSNO
PAWD 190753Z AUTO 35005KT 10SM OVC060 10/03 A2977 RMK AO2 SLP081 T01000028 TSNO
PAWD 190653Z AUTO 35006KT 10SM OVC060 10/03 A2978 RMK RAB29E45 SLP083 P0000 T01000033 TSNO VIA AUTODIAL
PAWD 190553Z AUTO 00000KT 10SM BKN060 OVC070 10/05 A2978 RMK SLP085 60000 T01000050 10111 20094 58010 TSNO VIA AUTODIAL
PAWD 190453Z AUTO 00000KT 10SM OVC050 09/05 A2980 RMK RAB07E15B42E53 SLP090 P0000 T00940050 TSNO VIA AUTODIAL
PAWD 190353Z AUTO 16003KT 10SM OVC050 09/04 A2981 RMK SLP094 T00940039 TSNO VIA AUTODIAL
PAWD 190253Z AUTO 18007KT 10SM BKN050 OVC060 10/04 A2981 RMK SLP095 T01000044 56004 TSNO VIA AUTODIAL
PAWD 190153Z AUTO 18008KT 10SM FEW046 BKN055 OVC070 11/04 A2981 RMK SLP096 T01060039 TSNO VIA AUTODIAL
PAWD 190053Z AUTO 17006KT 10SM FEW050 OVC060 11/03 A2982 RMK SLP098 T01060033 TSNO VIA AUTODIAL
PAWD 182353Z AUTO 16008KT 10SM SCT045 OVC060 10/03 A2982 RMK RAE21 SLP099 P0000 60000 T01000033 10117 20089 53005 TSNO VIA AUTODIAL
PAWD 182253Z AUTO 17009KT 10SM -RA BKN055 OVC070 10/05 A2982 RMK RAB13 SLP097 P0000 T01000050 TSNO VIA AUTODIAL
PAWD 182153Z AUTO 16010KT 10SM FEW039 BKN050 OVC090 11/04 A2981 RMK SLP095 T01060044 TSNO VIA AUTODIAL
PAWD 182053Z AUTO 16010KT 10SM FEW047 BKN060 10/05 A2981 RMK RAB1955E09 SLP094 P0000 60000 T01000050 51012 TSNO VIA AUTODIAL
PAWD 181953Z AUTO 17012KT 10SM OVC050 10/05 A2980 RMK SLP092 T01000050 TSNO VIA AUTODIAL
PAWD 181853Z AUTO 18007KT 10SM OVC055 09/04 A2979 RMK SLP088 T00890044 TSNO VIA AUTODIAL
PAWD 181753Z AUTO 00000KT 10SM BKN060 OVC110 10/03 A2977 RMK SLP082 T01000028 10100 20017 53003 TSNO VIA AUTODIAL
PAWD 181653Z AUTO 35006KT 10SM OVC060 08/03 A2977 RMK SLP080 T00830033 TSNO VIA AUTODIAL
PAWD 181553Z AUTO 34008KT 10SM CLR 06/03 A2977 RMK AO2 SLP080 T00610033 TSNO
PAWD 181453Z AUTO 35006KT 10SM CLR 04/03 A2977 RMK AO2 SLP079 T00390028 56001 TSNO
PAWD 181353Z AUTO 36005KT 10SM CLR 03/02 A2977 RMK AO2 SLP079 T00330017 TSNO
PAWD 181253Z AUTO 36005KT 10SM CLR 03/02 A2976 RMK AO2 SLP079 T00280017 TSNO
PAWD 181153Z AUTO 33003KT 10SM CLR 03/02 A2977 RMK AO2 SLP080 60001 70001 T00280022 10078 20022 55000 TSNO
PAWD 181053Z AUTO 35004KT 10SM CLR 03/02 A2976 RMK AO2 SLP079 T00330022 TSNO
PAWD 180953Z AUTO 35005KT 10SM SCT050 04/03 A2976 RMK AO2 SLP078 T00390028 TSNO